Noxville, Texas
Current Conditions -  °F | °C
As of 2:15 AM on Monday 24 Nov 2014 (Local Time) from KT82 Reporting Station
Clear Clear  
Wind Chill: 41°   Ceiling: Unl
Heat Index: 45°   Visibility: 10mi
Dew Point: 35°   Wind: 7mph
Humidity: 68%   Direction: 360°N
Pressure: 29.94"   Gusts: NA
Location:  30.3145°N, 99.2255°W
Report Text: KT82 240815Z AUTO 36006KT 10SM CLR 07/02 A2994 RMK AO2 T00700015
Loading
Personal Weather Stations






























Interactive Weather Map New forecast layout! Learn more

10-Day Weather Forecast

Advertisements
Track Severe Weather on mobile